createdAt,value
2022-12-27T00:01:13.498Z,7.83
2022-12-27T00:03:41.272Z,7.79
2022-12-27T00:06:14.617Z,7.79
2022-12-27T00:08:41.567Z,7.69
2022-12-27T00:11:10.726Z,7.56
2022-12-27T00:13:37.384Z,7.50
2022-12-27T00:16:10.572Z,7.50
2022-12-27T00:18:38.923Z,7.44
2022-12-27T00:21:07.596Z,7.40
2022-12-27T00:23:36.962Z,7.36
2022-12-27T00:26:21.855Z,7.31
2022-12-27T00:28:49.100Z,7.31
2022-12-27T00:31:16.878Z,7.34
2022-12-27T00:33:46.001Z,7.34
2022-12-27T00:36:15.618Z,7.33
2022-12-27T00:38:42.817Z,7.22
2022-12-27T00:41:09.626Z,7.23
2022-12-27T00:43:36.730Z,7.20
2022-12-27T00:46:03.626Z,7.27
2022-12-27T00:48:30.849Z,7.29
2022-12-27T00:51:07.032Z,7.26
2022-12-27T00:53:34.790Z,7.28
2022-12-27T00:56:01.753Z,7.13
2022-12-27T00:58:28.678Z,7.12
2022-12-27T01:00:55.444Z,7.06
2022-12-27T01:03:22.086Z,7.03
2022-12-27T01:05:48.694Z,7.11
2022-12-27T01:08:15.352Z,7.08
2022-12-27T01:10:41.969Z,7.05
2022-12-27T01:13:08.862Z,7.07
2022-12-27T01:15:35.443Z,7.03
2022-12-27T01:18:02.132Z,6.94
2022-12-27T01:20:28.757Z,7.10
2022-12-27T01:22:55.500Z,7.09
2022-12-27T01:25:22.102Z,7.00
2022-12-27T01:27:48.717Z,7.06
2022-12-27T01:30:15.423Z,7.07
2022-12-27T01:32:42.033Z,7.02
2022-12-27T01:35:09.296Z,7.02
2022-12-27T01:37:35.934Z,7.00
2022-12-27T01:40:02.540Z,6.96
2022-12-27T01:42:47.787Z,6.98
2022-12-27T01:45:28.344Z,6.93
2022-12-27T01:48:16.293Z,6.81
2022-12-27T01:50:47.327Z,6.83
2022-12-27T01:53:20.110Z,6.88
2022-12-27T01:56:09.150Z,6.87
2022-12-27T01:59:05.036Z,6.86
2022-12-27T02:01:42.259Z,6.92
2022-12-27T02:04:35.292Z,6.95
2022-12-27T02:07:01.834Z,6.88
2022-12-27T02:09:39.393Z,6.83
2022-12-27T02:12:07.536Z,6.80
2022-12-27T02:14:46.182Z,6.79
2022-12-27T02:17:17.257Z,6.80
2022-12-27T02:20:14.765Z,6.83
2022-12-27T02:23:37.730Z,6.83
2022-12-27T02:26:40.658Z,6.76
2022-12-27T02:29:35.619Z,6.86
2022-12-27T02:32:35.418Z,6.85
2022-12-27T02:35:24.645Z,6.79
2022-12-27T02:37:57.893Z,6.78
2022-12-27T02:40:45.534Z,6.87
2022-12-27T02:43:31.359Z,6.77
2022-12-27T02:46:30.319Z,6.80
2022-12-27T02:49:17.069Z,6.74
2022-12-27T02:52:18.984Z,6.71
2022-12-27T02:55:20.500Z,6.77
2022-12-27T02:57:58.166Z,6.77
2022-12-27T03:00:44.584Z,6.70
2022-12-27T03:04:02.816Z,6.76
2022-12-27T03:06:58.516Z,6.71
2022-12-27T03:10:26.948Z,6.67
2022-12-27T03:13:37.666Z,6.71
2022-12-27T03:16:25.740Z,6.64
2022-12-27T03:19:40.830Z,6.65
2022-12-27T03:22:28.368Z,6.52
2022-12-27T03:25:15.761Z,6.60
2022-12-27T03:28:06.584Z,6.55
2022-12-27T03:30:52.692Z,6.60
2022-12-27T03:33:19.599Z,6.57
2022-12-27T03:36:10.973Z,6.56
2022-12-27T03:39:05.347Z,6.57
2022-12-27T03:41:57.602Z,6.51
2022-12-27T03:44:25.984Z,6.45
2022-12-27T03:47:38.516Z,6.46
2022-12-27T03:50:18.861Z,6.50
2022-12-27T03:52:52.947Z,6.50
2022-12-27T03:55:19.692Z,6.44
2022-12-27T03:57:46.485Z,6.51
2022-12-27T04:00:14.091Z,6.45
2022-12-27T04:02:41.231Z,6.50
2022-12-27T04:05:08.477Z,6.49
2022-12-27T04:07:35.449Z,6.46
2022-12-27T04:10:21.009Z,6.37
2022-12-27T04:13:06.447Z,6.32
2022-12-27T04:15:51.868Z,6.39
2022-12-27T04:18:37.104Z,6.37
2022-12-27T04:21:22.508Z,6.33
2022-12-27T04:24:08.051Z,6.27
2022-12-27T04:26:53.305Z,6.23
2022-12-27T04:29:38.750Z,6.25
2022-12-27T04:32:23.918Z,6.13
2022-12-27T04:34:50.565Z,6.11
2022-12-27T04:37:19.282Z,6.08
2022-12-27T04:40:10.835Z,6.03
2022-12-27T04:42:56.199Z,6.03
2022-12-27T04:45:41.575Z,5.94
2022-12-27T04:48:32.329Z,5.93
2022-12-27T04:51:18.775Z,5.81
2022-12-27T04:54:04.202Z,5.75
2022-12-27T04:56:30.842Z,5.64
2022-12-27T04:59:15.955Z,5.59
2022-12-27T05:02:01.388Z,5.54
2022-12-27T05:04:28.113Z,5.42
2022-12-27T05:06:55.148Z,5.30
2022-12-27T05:09:40.240Z,5.28
2022-12-27T05:12:28.015Z,5.16
2022-12-27T05:14:54.676Z,5.20
2022-12-27T05:17:21.250Z,5.19
2022-12-27T05:19:47.834Z,5.18
2022-12-27T05:22:33.075Z,5.00
2022-12-27T05:25:18.520Z,4.91
2022-12-27T05:27:45.192Z,4.84
2022-12-27T05:30:12.298Z,4.85
2022-12-27T05:32:38.901Z,4.87
2022-12-27T05:35:06.072Z,4.89
2022-12-27T05:37:32.847Z,4.81
2022-12-27T05:39:59.455Z,4.67
2022-12-27T05:42:26.036Z,4.68
2022-12-27T05:44:52.606Z,4.70
2022-12-27T05:47:19.190Z,4.60
2022-12-27T05:49:45.793Z,4.55
2022-12-27T05:52:12.369Z,4.57
2022-12-27T05:54:38.958Z,4.64
2022-12-27T05:57:05.583Z,4.54
2022-12-27T05:59:32.159Z,4.35
2022-12-27T06:01:58.891Z,4.28
2022-12-27T06:04:25.569Z,4.30
2022-12-27T06:06:52.159Z,4.37
2022-12-27T06:09:18.767Z,4.31
2022-12-27T06:11:45.353Z,4.22
2022-12-27T06:14:11.992Z,4.17
2022-12-27T06:16:38.687Z,4.05
2022-12-27T06:19:05.335Z,4.01
2022-12-27T06:21:31.988Z,3.92
2022-12-27T06:23:58.590Z,3.77
2022-12-27T06:26:27.556Z,3.76
2022-12-27T06:28:56.013Z,3.84
2022-12-27T06:31:23.848Z,3.70
2022-12-27T06:33:51.705Z,3.66
2022-12-27T06:36:21.020Z,3.46
2022-12-27T06:38:48.300Z,3.50
2022-12-27T06:41:17.465Z,3.47
2022-12-27T06:43:44.987Z,3.45
2022-12-27T06:46:17.578Z,3.35
2022-12-27T06:48:46.083Z,3.23
2022-12-27T06:51:14.337Z,3.36
2022-12-27T06:53:41.171Z,3.28
2022-12-27T06:56:10.737Z,3.04
2022-12-27T06:58:37.750Z,3.07
2022-12-27T07:01:25.244Z,3.05
2022-12-27T07:03:54.502Z,3.12
2022-12-27T07:06:22.681Z,3.18
2022-12-27T07:08:50.709Z,3.18
2022-12-27T07:11:18.932Z,3.19
2022-12-27T07:13:48.383Z,3.16
2022-12-27T07:16:16.977Z,3.24
2022-12-27T07:18:44.043Z,3.27
2022-12-27T07:21:13.853Z,3.32
2022-12-27T07:23:40.500Z,3.30
2022-12-27T07:26:10.193Z,3.27
2022-12-27T07:28:37.716Z,3.27
2022-12-27T07:31:16.484Z,3.22
2022-12-27T07:33:43.945Z,3.28
2022-12-27T07:36:14.990Z,3.24
2022-12-27T07:38:41.711Z,3.29
2022-12-27T07:41:08.410Z,3.25
2022-12-27T07:43:35.899Z,3.35
2022-12-27T07:46:13.934Z,3.27
2022-12-27T07:48:41.186Z,3.32
2022-12-27T07:51:07.913Z,3.32
2022-12-27T07:53:35.477Z,3.25
2022-12-27T07:56:13.644Z,3.14
2022-12-27T07:58:42.264Z,3.21
2022-12-27T08:01:10.504Z,3.17
2022-12-27T08:03:38.030Z,3.17
2022-12-27T08:06:05.460Z,3.15
2022-12-27T08:08:38.492Z,3.10
2022-12-27T08:11:06.138Z,3.19
2022-12-27T08:13:33.322Z,3.18
2022-12-27T08:15:59.888Z,3.15
2022-12-27T08:18:26.630Z,3.22
2022-12-27T08:20:53.270Z,3.15
2022-12-27T08:23:20.292Z,3.12
2022-12-27T08:25:49.091Z,3.18
2022-12-27T08:28:17.688Z,3.03
2022-12-27T08:30:45.600Z,3.10
2022-12-27T08:33:12.695Z,3.22
2022-12-27T08:35:55.791Z,3.31
2022-12-27T08:38:22.432Z,3.15
2022-12-27T08:40:49.073Z,3.21
2022-12-27T08:43:15.702Z,3.28
2022-12-27T08:45:42.307Z,3.26
2022-12-27T08:48:09.028Z,3.25
2022-12-27T08:50:35.684Z,3.31
2022-12-27T08:53:04.184Z,3.42
2022-12-27T08:55:31.031Z,3.29
2022-12-27T08:58:03.120Z,3.34
2022-12-27T09:00:31.276Z,3.45
2022-12-27T09:02:58.577Z,3.45
2022-12-27T09:05:26.822Z,3.43
2022-12-27T09:07:54.017Z,3.56
2022-12-27T09:10:22.340Z,3.59
2022-12-27T09:12:49.237Z,3.69
2022-12-27T09:15:16.226Z,3.60
2022-12-27T09:17:43.182Z,3.70
2022-12-27T09:20:12.369Z,3.77
2022-12-27T09:22:39.534Z,3.74
2022-12-27T09:25:06.724Z,3.92
2022-12-27T09:27:35.099Z,3.95
2022-12-27T09:30:01.972Z,3.94
2022-12-27T09:32:28.493Z,3.89
2022-12-27T09:34:55.095Z,3.90
2022-12-27T09:37:21.795Z,3.85
2022-12-27T09:39:48.651Z,3.95
2022-12-27T09:43:07.490Z,3.99
2022-12-27T09:45:47.817Z,3.96
2022-12-27T09:48:38.353Z,4.04
2022-12-27T09:51:13.653Z,4.14
2022-12-27T09:53:51.126Z,4.21
2022-12-27T09:56:46.890Z,4.18
2022-12-27T09:59:41.856Z,4.18
2022-12-27T10:02:31.705Z,4.27
2022-12-27T10:08:15.556Z,4.40
2022-12-27T10:10:58.958Z,4.40
2022-12-27T10:13:47.007Z,4.42
2022-12-27T10:16:43.818Z,4.42
2022-12-27T10:19:41.241Z,4.51
2022-12-27T10:22:33.627Z,4.62
2022-12-27T10:25:05.026Z,4.62
2022-12-27T10:27:32.028Z,4.69
2022-12-27T10:30:00.217Z,4.74
2022-12-27T10:32:27.353Z,4.75
2022-12-27T10:35:01.236Z,4.64
2022-12-27T10:37:28.066Z,4.75
2022-12-27T10:39:58.074Z,4.77
2022-12-27T10:42:45.927Z,4.81
2022-12-27T10:45:29.052Z,4.89
2022-12-27T10:47:58.565Z,4.83
2022-12-27T10:50:28.496Z,4.93
2022-12-27T10:52:57.691Z,4.99
2022-12-27T10:55:39.290Z,5.09
2022-12-27T10:58:43.171Z,5.05
2022-12-27T11:01:19.000Z,5.14
2022-12-27T11:03:45.824Z,5.19
2022-12-27T11:06:24.502Z,5.20
2022-12-27T11:08:53.141Z,5.22
2022-12-27T11:11:25.640Z,5.29
2022-12-27T11:13:53.114Z,5.28
2022-12-27T11:16:34.936Z,5.23
2022-12-27T11:19:03.340Z,5.28
2022-12-27T11:21:31.513Z,5.29
2022-12-27T11:24:01.765Z,5.33
2022-12-27T11:26:47.574Z,5.35
2022-12-27T11:29:21.455Z,5.32
2022-12-27T11:31:48.706Z,5.25
2022-12-27T11:34:29.901Z,5.38
2022-12-27T11:37:05.432Z,5.35
2022-12-27T11:39:43.820Z,5.46
2022-12-27T11:42:33.548Z,5.48
2022-12-27T11:45:18.426Z,5.46
2022-12-27T11:48:26.316Z,5.46
2022-12-27T11:51:54.766Z,5.50
2022-12-27T11:54:39.736Z,5.57
2022-12-27T11:57:56.671Z,5.51
2022-12-27T12:00:27.231Z,5.47
2022-12-27T12:03:20.544Z,5.59
2022-12-27T12:06:16.894Z,5.57
2022-12-27T12:09:44.781Z,5.61
2022-12-27T12:12:52.651Z,5.70
2022-12-27T12:15:57.458Z,5.73
2022-12-27T12:18:36.773Z,5.80
2022-12-27T12:21:25.828Z,5.68
2022-12-27T12:24:41.134Z,5.76
2022-12-27T12:27:42.491Z,5.70
2022-12-27T12:30:37.791Z,5.72
2022-12-27T12:33:42.948Z,5.61
2022-12-27T12:36:52.718Z,5.60
2022-12-27T12:46:38.829Z,5.71
2022-12-27T12:49:46.399Z,5.77
2022-12-27T12:55:58.995Z,5.70
2022-12-27T12:59:09.669Z,5.73
2022-12-27T13:08:10.223Z,5.76
2022-12-27T13:14:34.621Z,5.71
2022-12-27T13:17:16.778Z,5.63
2022-12-27T13:20:23.498Z,5.63
2022-12-27T13:23:56.521Z,5.72
2022-12-27T13:26:34.581Z,5.63
2022-12-27T13:29:29.023Z,5.62
2022-12-27T13:32:37.478Z,5.64
2022-12-27T13:35:27.154Z,5.64
2022-12-27T13:38:48.204Z,5.71
2022-12-27T13:41:31.377Z,5.69
2022-12-27T13:44:15.152Z,5.65
2022-12-27T13:47:24.769Z,5.64
2022-12-27T13:50:13.126Z,5.67
2022-12-27T13:56:55.435Z,5.59
2022-12-27T13:59:48.400Z,5.65
2022-12-27T14:03:09.415Z,5.59
2022-12-27T14:06:05.851Z,5.67
2022-12-27T14:09:05.345Z,5.64
2022-12-27T14:12:01.382Z,5.62
2022-12-27T14:14:29.779Z,5.63
2022-12-27T14:17:19.139Z,5.58
2022-12-27T14:20:32.522Z,5.53
2022-12-27T14:23:27.074Z,5.48
2022-12-27T14:26:05.563Z,5.44
2022-12-27T14:29:22.721Z,5.42
2022-12-27T14:32:50.970Z,5.38
2022-12-27T14:35:52.010Z,5.32
2022-12-27T14:38:52.799Z,5.19
2022-12-27T14:41:52.992Z,5.30
2022-12-27T14:45:01.962Z,5.38
2022-12-27T14:48:06.241Z,5.29
2022-12-27T14:54:32.749Z,5.19
2022-12-27T14:57:36.936Z,5.07
2022-12-27T15:00:24.614Z,5.06
2022-12-27T15:03:21.416Z,5.03
2022-12-27T15:06:09.562Z,4.91
2022-12-27T15:08:46.672Z,4.82
2022-12-27T15:11:34.998Z,4.77
2022-12-27T15:14:41.408Z,4.72
2022-12-27T15:17:43.100Z,4.66
2022-12-27T15:20:52.853Z,4.62
2022-12-27T15:23:40.582Z,4.63
2022-12-27T15:26:42.133Z,4.59
2022-12-27T15:30:04.281Z,4.54
2022-12-27T15:32:53.454Z,4.51
2022-12-27T15:35:44.740Z,4.46
2022-12-27T15:38:52.989Z,4.45
2022-12-27T15:45:05.178Z,4.37
2022-12-27T15:47:55.128Z,4.37
2022-12-27T15:50:38.610Z,4.30
2022-12-27T15:53:38.076Z,4.22
2022-12-27T15:56:40.863Z,4.20
2022-12-27T15:59:46.876Z,4.14
2022-12-27T16:02:25.532Z,4.15
2022-12-27T16:05:31.004Z,4.05
2022-12-27T16:08:25.957Z,4.06
2022-12-27T16:10:53.004Z,4.05
2022-12-27T16:13:46.337Z,4.02
2022-12-27T16:16:28.433Z,3.97
2022-12-27T16:19:19.957Z,3.99
2022-12-27T16:21:50.468Z,3.94
2022-12-27T16:24:25.576Z,3.84
2022-12-27T16:26:58.341Z,3.82
2022-12-27T16:29:30.034Z,3.86
2022-12-27T16:32:16.763Z,3.85
2022-12-27T16:34:45.612Z,3.80
2022-12-27T16:37:25.348Z,3.73
2022-12-27T16:40:19.891Z,3.69
2022-12-27T16:43:18.503Z,3.67
2022-12-27T16:46:08.540Z,3.65
2022-12-27T16:49:27.710Z,3.60
2022-12-27T16:52:48.063Z,3.54
2022-12-27T16:55:29.862Z,3.40
2022-12-27T16:58:36.152Z,3.45
2022-12-27T17:01:05.628Z,3.42
2022-12-27T17:03:49.889Z,3.47
2022-12-27T17:06:52.543Z,3.46
2022-12-27T17:09:21.557Z,3.39
2022-12-27T17:12:08.352Z,3.38
2022-12-27T17:14:44.253Z,3.31
2022-12-27T17:17:17.532Z,3.21
2022-12-27T17:20:07.561Z,3.16
2022-12-27T17:22:38.480Z,3.08
2022-12-27T17:25:05.503Z,3.13
2022-12-27T17:28:01.356Z,3.17
2022-12-27T17:30:44.917Z,3.25
2022-12-27T17:33:50.380Z,3.27
2022-12-27T17:36:21.593Z,3.21
2022-12-27T17:39:00.691Z,3.18
2022-12-27T17:42:17.114Z,3.23
2022-12-27T17:44:59.171Z,3.22
2022-12-27T17:47:47.421Z,3.19
2022-12-27T17:50:18.148Z,3.23
2022-12-27T17:53:49.452Z,3.29
2022-12-27T17:56:40.558Z,3.29
2022-12-27T17:59:23.392Z,3.34
2022-12-27T18:01:53.569Z,3.35
2022-12-27T18:04:33.795Z,3.37
2022-12-27T18:07:02.997Z,3.36
2022-12-27T18:09:53.849Z,3.42
2022-12-27T18:12:34.585Z,3.43
2022-12-27T18:15:05.330Z,3.32
2022-12-27T18:17:37.500Z,3.26
2022-12-27T18:20:25.678Z,3.25
2022-12-27T18:23:06.497Z,3.14
2022-12-27T18:25:41.981Z,2.99
2022-12-27T18:28:32.492Z,2.82
2022-12-27T18:31:35.187Z,2.81
2022-12-27T18:34:55.195Z,2.84
2022-12-27T18:37:26.281Z,2.81
2022-12-27T18:40:02.520Z,2.79
2022-12-27T18:42:43.216Z,2.76
2022-12-27T18:45:29.082Z,2.76
2022-12-27T18:47:59.768Z,2.69
2022-12-27T18:50:32.602Z,2.67
2022-12-27T18:53:21.321Z,2.64
2022-12-27T18:56:04.861Z,2.73
2022-12-27T18:58:32.219Z,2.74
2022-12-27T19:01:20.397Z,2.76
2022-12-27T19:04:18.525Z,2.70
2022-12-27T19:07:12.579Z,2.62
2022-12-27T19:09:50.685Z,2.53
2022-12-27T19:12:27.986Z,2.47
2022-12-27T19:14:57.757Z,2.39
2022-12-27T19:17:29.766Z,2.41
2022-12-27T19:20:08.206Z,2.37
2022-12-27T19:22:53.256Z,2.41
2022-12-27T19:25:31.630Z,2.46
2022-12-27T19:28:19.377Z,2.53
2022-12-27T19:30:51.532Z,2.44
2022-12-27T19:33:26.824Z,2.45
2022-12-27T19:35:53.951Z,2.47
2022-12-27T19:38:26.885Z,2.44
2022-12-27T19:41:03.298Z,2.43
2022-12-27T19:43:40.036Z,2.51
2022-12-27T19:46:06.861Z,2.58
2022-12-27T19:48:33.456Z,2.58
2022-12-27T19:51:00.091Z,2.57
2022-12-27T19:53:36.854Z,2.60
2022-12-27T19:56:03.867Z,2.58
2022-12-27T19:58:30.973Z,2.57
2022-12-27T20:00:57.930Z,2.50
2022-12-27T20:03:25.233Z,2.43
2022-12-27T20:06:13.557Z,2.45
2022-12-27T20:08:48.362Z,2.40
2022-12-27T20:11:18.305Z,2.41
2022-12-27T20:13:47.376Z,2.49
2022-12-27T20:16:17.362Z,2.45
2022-12-27T20:18:45.071Z,2.34
2022-12-27T20:21:17.118Z,2.35
2022-12-27T20:23:44.175Z,2.35
2022-12-27T20:26:11.922Z,2.26
2022-12-27T20:28:38.748Z,2.31
2022-12-27T20:31:10.851Z,2.32
2022-12-27T20:33:37.462Z,2.24
2022-12-27T20:36:04.908Z,2.30
2022-12-27T20:38:32.157Z,2.29
2022-12-27T20:41:09.514Z,2.25
2022-12-27T20:43:36.346Z,2.03
2022-12-27T20:46:08.095Z,2.01
2022-12-27T20:48:43.673Z,2.08
2022-12-27T20:51:15.758Z,2.16
2022-12-27T20:53:42.703Z,2.10
2022-12-27T20:56:11.071Z,2.06
2022-12-27T20:58:37.685Z,2.12
2022-12-27T21:01:15.927Z,2.12
2022-12-27T21:03:43.620Z,2.13
2022-12-27T21:06:30.222Z,2.06
2022-12-27T21:08:58.532Z,2.05
2022-12-27T21:11:33.550Z,2.03
2022-12-27T21:14:01.894Z,2.06
2022-12-27T21:16:34.806Z,2.06
2022-12-27T21:19:05.083Z,1.87
2022-12-27T21:21:34.363Z,1.80
2022-12-27T21:24:00.972Z,1.76
2022-12-27T21:26:33.734Z,1.73
2022-12-27T21:29:01.369Z,1.65
2022-12-27T21:31:30.628Z,1.61
2022-12-27T21:33:59.491Z,1.55
2022-12-27T21:36:29.998Z,1.60
2022-12-27T21:38:57.583Z,1.54
2022-12-27T21:41:26.308Z,1.52
2022-12-27T21:43:53.369Z,1.49
2022-12-27T21:46:31.797Z,1.42
2022-12-27T21:49:01.040Z,1.45
2022-12-27T21:51:28.970Z,1.46
2022-12-27T21:53:56.069Z,1.47
2022-12-27T21:56:23.120Z,1.50
2022-12-27T21:58:50.150Z,1.48
2022-12-27T22:01:25.782Z,1.46
2022-12-27T22:03:53.911Z,1.47
2022-12-27T22:06:26.218Z,1.43
2022-12-27T22:08:55.163Z,1.41
2022-12-27T22:11:23.307Z,1.39
2022-12-27T22:13:50.885Z,1.41
2022-12-27T22:16:19.925Z,1.42
2022-12-27T22:18:47.433Z,1.36
2022-12-27T22:21:20.466Z,1.36
2022-12-27T22:23:48.980Z,1.14
2022-12-27T22:26:18.694Z,1.13
2022-12-27T22:28:45.644Z,1.20
2022-12-27T22:31:17.240Z,1.23
2022-12-27T22:33:43.994Z,1.26
2022-12-27T22:36:14.231Z,1.23
2022-12-27T22:38:41.257Z,1.16
2022-12-27T22:41:17.039Z,1.24
2022-12-27T22:43:58.684Z,1.30
2022-12-27T22:46:26.378Z,1.31
2022-12-27T22:48:55.155Z,1.36
2022-12-27T22:51:24.231Z,1.39
2022-12-27T22:53:51.209Z,1.40
2022-12-27T22:56:20.344Z,1.44
2022-12-27T22:58:47.704Z,1.46
2022-12-27T23:01:23.454Z,1.32
2022-12-27T23:03:50.521Z,1.18
2022-12-27T23:06:17.703Z,1.04
2022-12-27T23:08:45.014Z,1.06
2022-12-27T23:11:14.687Z,1.08
2022-12-27T23:13:41.381Z,1.13
2022-12-27T23:16:08.354Z,1.25
2022-12-27T23:18:36.686Z,1.24
2022-12-27T23:21:21.523Z,1.13
2022-12-27T23:23:50.478Z,1.07
2022-12-27T23:26:19.509Z,0.92
2022-12-27T23:28:47.530Z,0.84
2022-12-27T23:31:15.060Z,0.85
2022-12-27T23:33:42.962Z,0.88
2022-12-27T23:36:10.969Z,0.87
2022-12-27T23:38:37.764Z,0.85
2022-12-27T23:41:06.831Z,0.81
2022-12-27T23:43:55.869Z,0.86
2022-12-27T23:46:28.176Z,0.84
2022-12-27T23:48:56.336Z,0.74
2022-12-27T23:51:23.169Z,0.71
2022-12-27T23:53:49.953Z,0.72
2022-12-27T23:56:28.409Z,0.77
2022-12-27T23:58:56.757Z,0.84
